Time;durP1;ratioP1;P1;durP2;ratioP2;P2;SDS_P1;SDS_P2;PMS_P1;PMS_P2;Temp;Humidity;BMP_temperature;BMP_pressure;BME280_temperature;BME280_humidity;BME280_pressure;Samples;Min_cycle;Max_cycle;Signal;HPM_P1;HPM_P2
2023/08/19 00:02:06;;;;;;;18.30;14.82;;;;;;;;;;5055882;28;20800;-35
2023/08/19 00:04:31;;;;;;;21.52;15.48;;;;;;;;;;5055882;28;20056;-36
2023/08/19 00:06:56;;;;;;;18.40;14.87;;;;;;;;;;5055573;28;20020;-35
2023/08/19 00:09:21;;;;;;;20.33;15.83;;;;;;;;;;5055459;28;20464;-35
2023/08/19 00:11:46;;;;;;;21.73;15.17;;;;;;;;;;5055838;28;20268;-35
2023/08/19 00:14:12;;;;;;;24.80;15.87;;;;;;;;;;5055465;28;20244;-35
2023/08/19 00:16:37;;;;;;;22.53;16.20;;;;;;;;;;5055610;28;20259;-35
2023/08/19 00:19:03;;;;;;;18.40;14.93;;;;;;;;;;5055278;28;20282;-35
2023/08/19 00:21:28;;;;;;;18.38;15.20;;;;;;;;;;5055196;28;20017;-35
2023/08/19 00:23:54;;;;;;;20.45;15.45;;;;;;;;;;5055527;28;20025;-34
2023/08/19 00:26:19;;;;;;;21.42;15.68;;;;;;;;;;5055494;28;20067;-35
2023/08/19 00:28:44;;;;;;;19.53;15.57;;;;;;;;;;5055716;28;20013;-35
2023/08/19 00:31:09;;;;;;;18.53;14.73;;;;;;;;;;5055392;28;20067;-35
2023/08/19 00:33:35;;;;;;;20.83;16.20;;;;;;;;;;5055054;28;20256;-35
2023/08/19 00:36:00;;;;;;;22.77;16.40;;;;;;;;;;5054903;28;20361;-36
2023/08/19 00:38:26;;;;;;;21.85;16.67;;;;;;;;;;5055220;28;20028;-36
2023/08/19 00:40:51;;;;;;;19.10;15.73;;;;;;;;;;5055144;28;20387;-35
2023/08/19 00:43:16;;;;;;;21.67;15.57;;;;;;;;;;5054915;28;20021;-35
2023/08/19 00:45:46;;;;;;;21.80;16.07;;;;;;;;;;5055367;28;20104;-36
2023/08/19 00:48:11;;;;;;;19.33;15.10;;;;;;;;;;5055049;28;20741;-36
2023/08/19 00:50:37;;;;;;;21.90;16.27;;;;;;;;;;5054975;28;20024;-36
2023/08/19 00:53:03;;;;;;;24.25;16.38;;;;;;;;;;5055307;28;20021;-36
2023/08/19 00:55:28;;;;;;;21.30;15.23;;;;;;;;;;5054917;28;20112;-36
2023/08/19 00:57:53;;;;;;;21.00;16.38;;;;;;;;;;5055179;28;20060;-36
2023/08/19 01:00:18;;;;;;;23.52;15.88;;;;;;;;;;5054633;28;20017;-35
2023/08/19 01:02:44;;;;;;;20.10;16.33;;;;;;;;;;5054548;28;20056;-35
2023/08/19 01:05:10;;;;;;;21.13;16.65;;;;;;;;;;5054488;28;20284;-36
2023/08/19 01:07:54;;;;;;;19.35;16.33;;;;;;;;;;5054435;28;20484;-37
2023/08/19 01:10:22;;;;;;;18.67;14.85;;;;;;;;;;5054415;28;20025;-35
2023/08/19 01:12:55;;;;;;;20.27;15.93;;;;;;;;;;5054167;28;20052;-36
2023/08/19 01:15:23;;;;;;;21.45;16.40;;;;;;;;;;5054528;28;20422;-35
2023/08/19 01:17:48;;;;;;;24.80;16.20;;;;;;;;;;5054118;28;20096;-36
2023/08/19 01:20:14;;;;;;;19.98;16.10;;;;;;;;;;5054035;28;20120;-35
2023/08/19 01:22:42;;;;;;;20.42;16.38;;;;;;;;;;5054679;28;20013;-35
2023/08/19 01:25:09;;;;;;;20.80;16.02;;;;;;;;;;5054119;28;20028;-35
2023/08/19 01:27:34;;;;;;;20.75;17.00;;;;;;;;;;5054360;28;20486;-35
2023/08/19 01:29:59;;;;;;;18.47;15.53;;;;;;;;;;5054110;28;20056;-36
2023/08/19 01:32:24;;;;;;;21.73;15.60;;;;;;;;;;5053954;28;20266;-36
2023/08/19 01:34:50;;;;;;;19.67;15.43;;;;;;;;;;5053891;28;20383;-36
2023/08/19 01:37:36;;;;;;;19.40;15.38;;;;;;;;;;5054693;28;20066;-36
2023/08/19 01:40:01;;;;;;;21.88;15.90;;;;;;;;;;5054152;28;20379;-35
2023/08/19 01:42:26;;;;;;;21.85;16.48;;;;;;;;;;5053788;28;20013;-35
2023/08/19 01:44:53;;;;;;;20.63;15.65;;;;;;;;;;5054023;28;20024;-35
2023/08/19 01:47:18;;;;;;;21.42;15.90;;;;;;;;;;5053779;28;20100;-35
2023/08/19 01:49:43;;;;;;;19.40;16.17;;;;;;;;;;5053931;28;20092;-34
2023/08/19 01:52:09;;;;;;;20.90;15.98;;;;;;;;;;5054267;28;20695;-35
2023/08/19 01:54:35;;;;;;;21.63;15.75;;;;;;;;;;5053849;28;20070;-35
2023/08/19 01:57:00;;;;;;;23.00;16.33;;;;;;;;;;5053903;28;20463;-35
2023/08/19 01:59:25;;;;;;;21.47;16.17;;;;;;;;;;5054050;28;20025;-35
2023/08/19 02:01:50;;;;;;;21.67;15.27;;;;;;;;;;5053549;28;20547;-35
2023/08/19 02:04:17;;;;;;;22.67;16.07;;;;;;;;;;5053489;28;20296;-35
2023/08/19 02:06:42;;;;;;;19.63;15.60;;;;;;;;;;5053623;28;20070;-35
2023/08/19 02:09:07;;;;;;;22.60;15.47;;;;;;;;;;5053721;28;20092;-35
2023/08/19 02:11:32;;;;;;;20.57;15.90;;;;;;;;;;5052692;28;20388;-35
2023/08/19 02:13:58;;;;;;;27.20;15.60;;;;;;;;;;5053470;28;20023;-35
2023/08/19 02:16:23;;;;;;;25.07;16.53;;;;;;;;;;5053911;28;20048;-35
2023/08/19 02:18:48;;;;;;;20.80;15.17;;;;;;;;;;5053323;28;20029;-36
2023/08/19 02:21:13;;;;;;;20.37;15.43;;;;;;;;;;5053521;28;20025;-35
2023/08/19 02:23:38;;;;;;;20.20;15.90;;;;;;;;;;5053584;28;20262;-35
2023/08/19 02:26:04;;;;;;;22.93;15.57;;;;;;;;;;5054325;28;20013;-35
2023/08/19 02:28:29;;;;;;;25.40;15.45;;;;;;;;;;5053533;28;20255;-35
2023/08/19 02:31:00;;;;;;;20.93;15.27;;;;;;;;;;5053138;28;20028;-35
2023/08/19 02:33:25;;;;;;;21.00;15.90;;;;;;;;;;5053140;28;20526;-35
2023/08/19 02:35:50;;;;;;;20.77;15.30;;;;;;;;;;5053195;28;20029;-35
2023/08/19 02:38:15;;;;;;;21.77;15.45;;;;;;;;;;5053464;28;20035;-35
2023/08/19 02:40:41;;;;;;;20.13;15.50;;;;;;;;;;5053345;28;20374;-35
2023/08/19 02:43:06;;;;;;;18.20;14.85;;;;;;;;;;5053447;28;20029;-36
2023/08/19 02:45:35;;;;;;;21.13;15.10;;;;;;;;;;5053669;28;20092;-35
2023/08/19 02:48:00;;;;;;;21.63;15.35;;;;;;;;;;5053360;28;20362;-36
2023/08/19 02:50:25;;;;;;;19.73;14.43;;;;;;;;;;5053298;28;20013;-36
2023/08/19 02:52:51;;;;;;;20.80;14.90;;;;;;;;;;5053064;28;20025;-36
2023/08/19 02:55:16;;;;;;;20.70;15.00;;;;;;;;;;5053295;28;20033;-36
2023/08/19 02:57:41;;;;;;;18.27;14.60;;;;;;;;;;5053243;28;20113;-36
2023/08/19 03:00:07;;;;;;;20.17;14.70;;;;;;;;;;5053198;28;20452;-36
2023/08/19 03:02:32;;;;;;;19.58;14.43;;;;;;;;;;5053204;28;20061;-36
2023/08/19 03:04:57;;;;;;;19.30;14.73;;;;;;;;;;5053006;28;20460;-36
2023/08/19 03:07:22;;;;;;;19.47;14.50;;;;;;;;;;5052904;28;20252;-36
2023/08/19 03:09:47;;;;;;;21.50;15.00;;;;;;;;;;5053441;28;20049;-35
2023/08/19 03:12:13;;;;;;;17.67;13.93;;;;;;;;;;5052704;28;20037;-35
2023/08/19 03:14:38;;;;;;;21.67;14.80;;;;;;;;;;5052874;28;20025;-35
2023/08/19 03:17:03;;;;;;;19.93;13.97;;;;;;;;;;5052794;28;20252;-35
2023/08/19 03:19:29;;;;;;;21.50;14.25;;;;;;;;;;5052658;28;20103;-36
2023/08/19 03:21:54;;;;;;;20.10;13.82;;;;;;;;;;5053180;28;20043;-37
2023/08/19 03:24:19;;;;;;;20.00;13.73;;;;;;;;;;5056422;28;20372;-35
2023/08/19 03:26:44;;;;;;;21.27;13.90;;;;;;;;;;5056355;28;20244;-36
2023/08/19 03:29:10;;;;;;;21.03;13.73;;;;;;;;;;5055086;28;20270;-35
2023/08/19 03:31:35;;;;;;;21.27;13.97;;;;;;;;;;5056717;28;20270;-35
2023/08/19 03:34:00;;;;;;;20.07;13.77;;;;;;;;;;5056250;28;20350;-35
2023/08/19 03:36:25;;;;;;;18.50;13.67;;;;;;;;;;5056749;28;20039;-35
2023/08/19 03:38:50;;;;;;;18.97;13.67;;;;;;;;;;5056082;28;20287;-34
2023/08/19 03:41:15;;;;;;;20.70;13.83;;;;;;;;;;5056128;28;20028;-35
2023/08/19 03:43:41;;;;;;;17.33;13.23;;;;;;;;;;5056617;28;20021;-35
2023/08/19 03:46:08;;;;;;;19.13;13.20;;;;;;;;;;5056012;28;20039;-35
2023/08/19 03:48:33;;;;;;;20.50;13.27;;;;;;;;;;5055978;28;20486;-35
2023/08/19 03:50:59;;;;;;;19.67;13.30;;;;;;;;;;5055900;28;20136;-34
2023/08/19 03:53:24;;;;;;;17.97;13.13;;;;;;;;;;5055893;28;20013;-35
2023/08/19 03:55:49;;;;;;;17.80;12.73;;;;;;;;;;5055804;28;20611;-36
2023/08/19 03:58:14;;;;;;;17.02;12.25;;;;;;;;;;5056548;28;20036;-34
2023/08/19 04:00:39;;;;;;;14.10;11.57;;;;;;;;;;5056219;28;20021;-35
2023/08/19 04:03:04;;;;;;;17.20;12.37;;;;;;;;;;5055714;28;20092;-34
2023/08/19 04:05:30;;;;;;;15.97;11.93;;;;;;;;;;5055901;28;20124;-35
2023/08/19 04:07:55;;;;;;;18.23;11.97;;;;;;;;;;5055600;28;20418;-35
2023/08/19 04:10:20;;;;;;;16.50;12.33;;;;;;;;;;5055581;28;20067;-35
2023/08/19 04:12:45;;;;;;;17.27;12.13;;;;;;;;;;5055392;28;20132;-35
2023/08/19 04:15:11;;;;;;;17.55;12.27;;;;;;;;;;5055998;28;20490;-35
2023/08/19 04:17:36;;;;;;;16.58;11.40;;;;;;;;;;5055397;28;20029;-36
2023/08/19 04:20:03;;;;;;;15.63;11.70;;;;;;;;;;5055861;28;20018;-35
2023/08/19 04:22:28;;;;;;;13.88;11.40;;;;;;;;;;5055611;28;20334;-36
2023/08/19 04:24:54;;;;;;;15.18;11.55;;;;;;;;;;5055297;28;20040;-35
2023/08/19 04:27:19;;;;;;;18.08;11.30;;;;;;;;;;5055563;28;20028;-36
2023/08/19 04:29:44;;;;;;;18.80;11.50;;;;;;;;;;5055031;28;20047;-34
2023/08/19 04:32:09;;;;;;;17.25;11.07;;;;;;;;;;5055390;28;20107;-34
2023/08/19 04:34:35;;;;;;;15.40;10.90;;;;;;;;;;5054658;28;20017;-34
2023/08/19 04:37:00;;;;;;;19.40;11.23;;;;;;;;;;5055344;28;20260;-35
2023/08/19 04:39:26;;;;;;;14.73;10.67;;;;;;;;;;5055222;28;20263;-35
2023/08/19 04:41:53;;;;;;;17.92;10.80;;;;;;;;;;5055242;28;20657;-34
2023/08/19 04:44:18;;;;;;;12.85;10.38;;;;;;;;;;5055227;28;20042;-35
2023/08/19 04:46:43;;;;;;;19.00;10.70;;;;;;;;;;5054864;28;20429;-35
2023/08/19 04:49:08;;;;;;;13.80;9.60;;;;;;;;;;5055119;28;20005;-35
2023/08/19 04:51:34;;;;;;;15.20;9.87;;;;;;;;;;5054722;28;20079;-35
2023/08/19 04:53:59;;;;;;;14.60;9.98;;;;;;;;;;5054738;28;20247;-36
2023/08/19 04:56:25;;;;;;;15.35;10.32;;;;;;;;;;5054689;28;20017;-36
2023/08/19 04:58:50;;;;;;;13.82;9.60;;;;;;;;;;5054899;28;20025;-36
2023/08/19 05:01:15;;;;;;;13.95;9.77;;;;;;;;;;5054798;28;20376;-36
2023/08/19 05:03:40;;;;;;;18.17;9.45;;;;;;;;;;5054582;28;20021;-36
2023/08/19 05:06:06;;;;;;;16.00;9.63;;;;;;;;;;5054479;28;20024;-36
2023/08/19 05:08:31;;;;;;;13.38;9.77;;;;;;;;;;5055193;28;20072;-36
2023/08/19 05:10:56;;;;;;;15.40;9.43;;;;;;;;;;5054234;28;20024;-35
2023/08/19 05:13:21;;;;;;;11.47;8.70;;;;;;;;;;5054525;28;20079;-36
2023/08/19 05:15:46;;;;;;;14.93;9.20;;;;;;;;;;5054256;28;20259;-34
2023/08/19 05:18:12;;;;;;;16.07;8.67;;;;;;;;;;5054538;28;20071;-35
2023/08/19 05:20:37;;;;;;;16.88;8.68;;;;;;;;;;5054191;28;20348;-35
2023/08/19 05:23:02;;;;;;;14.60;8.90;;;;;;;;;;5054691;28;20017;-35
2023/08/19 05:25:29;;;;;;;14.18;9.25;;;;;;;;;;5053641;28;20321;-35
2023/08/19 05:27:54;;;;;;;14.50;9.00;;;;;;;;;;5053967;28;20021;-35
2023/08/19 05:30:19;;;;;;;17.38;9.00;;;;;;;;;;5054185;28;20021;-35
2023/08/19 05:32:44;;;;;;;14.67;9.40;;;;;;;;;;5054564;28;20059;-35
2023/08/19 05:35:10;;;;;;;12.53;8.50;;;;;;;;;;5053967;28;20467;-34
2023/08/19 05:37:35;;;;;;;12.57;8.63;;;;;;;;;;5054459;28;20104;-34
2023/08/19 05:40:01;;;;;;;13.13;8.70;;;;;;;;;;5053739;28;20177;-35
2023/08/19 05:42:26;;;;;;;13.52;8.73;;;;;;;;;;5054029;28;20661;-35
2023/08/19 05:44:51;;;;;;;14.83;8.60;;;;;;;;;;5054324;28;20044;-36
2023/08/19 05:47:16;;;;;;;16.95;9.20;;;;;;;;;;5052789;28;20376;-35
2023/08/19 05:49:42;;;;;;;12.20;8.70;;;;;;;;;;5053998;28;20099;-35
2023/08/19 05:52:07;;;;;;;14.35;8.77;;;;;;;;;;5053994;28;20329;-35
2023/08/19 05:54:32;;;;;;;14.57;8.25;;;;;;;;;;5054147;28;20032;-35
2023/08/19 05:56:57;;;;;;;12.60;8.18;;;;;;;;;;5054174;28;20021;-35
2023/08/19 05:59:22;;;;;;;17.70;8.70;;;;;;;;;;5053530;28;20403;-34
2023/08/19 06:01:48;;;;;;;13.50;8.83;;;;;;;;;;5053013;28;20097;-35
2023/08/19 06:04:15;;;;;;;14.45;9.40;;;;;;;;;;5052573;28;20021;-35
2023/08/19 06:06:40;;;;;;;14.70;8.55;;;;;;;;;;5053043;28;20017;-36
2023/08/19 06:09:05;;;;;;;13.03;8.80;;;;;;;;;;5053469;28;20017;-36
2023/08/19 06:11:31;;;;;;;11.83;8.57;;;;;;;;;;5053661;28;20056;-35
2023/08/19 06:13:58;;;;;;;13.37;8.97;;;;;;;;;;5053598;28;20326;-36
2023/08/19 06:16:23;;;;;;;11.85;8.63;;;;;;;;;;5053599;28;20259;-34
2023/08/19 06:18:48;;;;;;;17.23;9.37;;;;;;;;;;5053331;28;20017;-35
2023/08/19 06:21:14;;;;;;;13.17;8.90;;;;;;;;;;5053475;28;20017;-35
2023/08/19 06:23:39;;;;;;;15.48;8.77;;;;;;;;;;5053539;28;20021;-35
2023/08/19 06:26:04;;;;;;;14.93;9.10;;;;;;;;;;5053539;28;20020;-35
2023/08/19 06:28:29;;;;;;;16.00;8.80;;;;;;;;;;5053790;28;20358;-35
2023/08/19 06:30:56;;;;;;;12.67;8.90;;;;;;;;;;5053162;28;20048;-35
2023/08/19 06:33:22;;;;;;;14.77;9.50;;;;;;;;;;5053552;28;20349;-35
2023/08/19 06:35:48;;;;;;;18.15;9.15;;;;;;;;;;5053503;28;20029;-35
2023/08/19 06:38:15;;;;;;;11.88;8.90;;;;;;;;;;5053674;28;20025;-35
2023/08/19 06:40:50;;;;;;;14.15;9.30;;;;;;;;;;5053646;28;20025;-35
2023/08/19 06:43:16;;;;;;;16.08;9.18;;;;;;;;;;5053745;28;20452;-36
2023/08/19 06:45:42;;;;;;;16.95;9.30;;;;;;;;;;5053371;28;20123;-36
2023/08/19 06:48:07;;;;;;;17.48;8.43;;;;;;;;;;5053277;28;20468;-36
2023/08/19 06:50:33;;;;;;;12.63;8.27;;;;;;;;;;5053078;28;20025;-35
2023/08/19 06:52:58;;;;;;;12.68;8.40;;;;;;;;;;5053045;28;20254;-35
2023/08/19 06:55:23;;;;;;;12.35;7.78;;;;;;;;;;5052969;28;20028;-35
2023/08/19 06:57:53;;;;;;;12.73;7.75;;;;;;;;;;5055082;28;20044;-36
2023/08/19 07:00:18;;;;;;;12.40;7.88;;;;;;;;;;5057325;28;20025;-35
2023/08/19 07:02:44;;;;;;;17.17;7.30;;;;;;;;;;5057260;28;20017;-36
2023/08/19 07:05:12;;;;;;;11.98;7.38;;;;;;;;;;5056756;28;20067;-36
2023/08/19 07:07:39;;;;;;;12.73;7.43;;;;;;;;;;5056688;28;20017;-36
2023/08/19 07:10:05;;;;;;;10.57;7.50;;;;;;;;;;5056643;28;20025;-36
2023/08/19 07:12:31;;;;;;;11.55;7.70;;;;;;;;;;5056441;28;20049;-36
2023/08/19 07:14:56;;;;;;;13.38;7.60;;;;;;;;;;5056442;28;20025;-36
2023/08/19 07:17:22;;;;;;;12.18;7.43;;;;;;;;;;5056439;28;20075;-36
2023/08/19 07:19:48;;;;;;;14.82;7.47;;;;;;;;;;5055408;28;20067;-35
2023/08/19 07:22:14;;;;;;;12.98;7.60;;;;;;;;;;5056371;28;20414;-35
2023/08/19 07:24:42;;;;;;;12.93;7.28;;;;;;;;;;5056458;28;20020;-35
2023/08/19 07:27:08;;;;;;;10.75;7.00;;;;;;;;;;5056606;28;20029;-35
2023/08/19 07:29:35;;;;;;;13.45;7.13;;;;;;;;;;5056235;28;20400;-36
2023/08/19 07:32:01;;;;;;;10.57;6.82;;;;;;;;;;5056322;28;20517;-36
2023/08/19 07:34:26;;;;;;;12.82;6.93;;;;;;;;;;5056219;28;20009;-35
2023/08/19 07:36:51;;;;;;;13.90;6.93;;;;;;;;;;5056076;28;20013;-35
2023/08/19 07:39:17;;;;;;;14.20;7.43;;;;;;;;;;5056393;28;20016;-41
2023/08/19 07:41:42;;;;;;;13.70;7.77;;;;;;;;;;5056518;28;20276;-35
2023/08/19 07:44:07;;;;;;;16.83;7.88;;;;;;;;;;5056031;28;20591;-35
2023/08/19 07:46:32;;;;;;;15.07;8.50;;;;;;;;;;5056491;28;20119;-35
2023/08/19 07:48:58;;;;;;;13.93;8.90;;;;;;;;;;5056217;28;20012;-35
2023/08/19 07:51:23;;;;;;;14.43;8.75;;;;;;;;;;5056185;28;20410;-35
2023/08/19 07:53:48;;;;;;;14.77;9.05;;;;;;;;;;5055782;28;20021;-35
2023/08/19 07:56:14;;;;;;;14.77;9.48;;;;;;;;;;5056080;28;20024;-35
2023/08/19 07:58:39;;;;;;;15.67;9.53;;;;;;;;;;5056037;28;20100;-35
2023/08/19 08:01:05;;;;;;;15.80;9.50;;;;;;;;;;5055662;28;20275;-36
2023/08/19 08:03:30;;;;;;;20.80;9.80;;;;;;;;;;5055786;28;20075;-36
2023/08/19 08:05:55;;;;;;;12.57;9.85;;;;;;;;;;5055612;28;20017;-36
2023/08/19 08:08:20;;;;;;;14.90;10.13;;;;;;;;;;5055421;28;20021;-36
2023/08/19 08:10:45;;;;;;;15.60;10.17;;;;;;;;;;5054650;28;20398;-35
2023/08/19 08:13:11;;;;;;;17.47;10.13;;;;;;;;;;5055473;28;20025;-36
2023/08/19 08:15:36;;;;;;;15.27;9.87;;;;;;;;;;5055505;28;20064;-36
2023/08/19 08:18:01;;;;;;;18.85;9.57;;;;;;;;;;5055717;28;20518;-36
2023/08/19 08:20:26;;;;;;;18.60;9.80;;;;;;;;;;5055765;28;20032;-36
2023/08/19 08:22:52;;;;;;;13.30;9.17;;;;;;;;;;5055296;28;20459;-35
2023/08/19 08:25:17;;;;;;;14.67;9.50;;;;;;;;;;5055298;28;20809;-35
2023/08/19 08:27:42;;;;;;;17.10;9.30;;;;;;;;;;5055166;28;20251;-35
2023/08/19 08:30:07;;;;;;;12.87;8.87;;;;;;;;;;5055397;28;20250;-35
2023/08/19 08:32:33;;;;;;;15.40;9.30;;;;;;;;;;5055272;28;20742;-35
2023/08/19 08:34:59;;;;;;;11.98;8.60;;;;;;;;;;5055098;28;20051;-35
2023/08/19 08:37:24;;;;;;;12.20;9.00;;;;;;;;;;5055258;28;20017;-35
2023/08/19 08:39:49;;;;;;;17.75;8.90;;;;;;;;;;5054945;28;20490;-35
2023/08/19 08:42:15;;;;;;;15.17;8.60;;;;;;;;;;5055478;28;20013;-36
2023/08/19 08:44:43;;;;;;;12.90;8.65;;;;;;;;;;5055718;28;20411;-36
2023/08/19 08:47:08;;;;;;;17.67;9.25;;;;;;;;;;5054852;28;20374;-34
2023/08/19 08:49:34;;;;;;;17.83;9.67;;;;;;;;;;5054861;28;20092;-35
2023/08/19 08:52:00;;;;;;;15.82;9.43;;;;;;;;;;5054732;28;20804;-35
2023/08/19 08:54:26;;;;;;;14.82;9.40;;;;;;;;;;5054929;28;20360;-35
2023/08/19 08:56:51;;;;;;;14.27;9.57;;;;;;;;;;5054661;28;20016;-35
2023/08/19 08:59:17;;;;;;;16.45;9.90;;;;;;;;;;5055128;28;20017;-35
2023/08/19 09:01:43;;;;;;;16.70;10.07;;;;;;;;;;5054450;28;20024;-35
2023/08/19 09:04:08;;;;;;;13.30;10.18;;;;;;;;;;5054570;28;20656;-36
2023/08/19 09:06:36;;;;;;;17.17;10.00;;;;;;;;;;5054438;28;20066;-35
2023/08/19 09:09:02;;;;;;;19.55;10.57;;;;;;;;;;5054946;28;20363;-35
2023/08/19 09:11:28;;;;;;;16.63;10.43;;;;;;;;;;5054343;28;20476;-34
2023/08/19 09:14:05;;;;;;;20.70;10.32;;;;;;;;;;5054496;28;20017;-35
2023/08/19 09:16:30;;;;;;;17.83;9.70;;;;;;;;;;5054277;28;20056;-36
2023/08/19 09:18:55;;;;;;;17.03;10.00;;;;;;;;;;5054806;28;20060;-36
2023/08/19 09:21:21;;;;;;;21.00;11.43;;;;;;;;;;5053863;28;20043;-36
2023/08/19 09:23:46;;;;;;;18.45;10.65;;;;;;;;;;5054158;28;20017;-36
2023/08/19 09:26:11;;;;;;;16.30;10.37;;;;;;;;;;5054100;28;20021;-35
2023/08/19 09:28:36;;;;;;;14.80;10.60;;;;;;;;;;5054320;28;20024;-34
2023/08/19 09:31:16;;;;;;;16.88;10.95;;;;;;;;;;5054283;28;20372;-35
2023/08/19 09:33:44;;;;;;;16.15;10.93;;;;;;;;;;5054005;28;20017;-36
2023/08/19 09:36:09;;;;;;;23.92;11.95;;;;;;;;;;5054244;28;20027;-36
2023/08/19 09:38:34;;;;;;;20.33;11.10;;;;;;;;;;5054743;28;20099;-35
2023/08/19 09:41:02;;;;;;;15.60;10.52;;;;;;;;;;5053736;28;20056;-36
2023/08/19 09:43:27;;;;;;;18.80;10.90;;;;;;;;;;5053896;28;20096;-36
2023/08/19 09:45:59;;;;;;;17.05;11.07;;;;;;;;;;5054352;28;20095;-36
2023/08/19 09:48:24;;;;;;;17.02;11.07;;;;;;;;;;5052468;28;20352;-35
2023/08/19 09:50:49;;;;;;;15.98;9.55;;;;;;;;;;5054039;28;20036;-35
2023/08/19 09:53:16;;;;;;;17.30;9.50;;;;;;;;;;5053647;28;20525;-35
2023/08/19 09:55:45;;;;;;;18.40;9.63;;;;;;;;;;5053651;28;20814;-35
2023/08/19 09:58:10;;;;;;;14.63;9.27;;;;;;;;;;5053643;28;20025;-35
2023/08/19 10:00:35;;;;;;;15.83;8.77;;;;;;;;;;5053143;28;20491;-35
2023/08/19 10:03:01;;;;;;;15.50;8.77;;;;;;;;;;5053288;28;20024;-35
2023/08/19 10:05:26;;;;;;;12.15;7.65;;;;;;;;;;5053961;28;20020;-36
2023/08/19 10:08:03;;;;;;;11.23;6.82;;;;;;;;;;5053036;28;20021;-35
2023/08/19 10:10:31;;;;;;;9.68;6.38;;;;;;;;;;5053756;28;20383;-35
2023/08/19 10:12:57;;;;;;;8.88;6.15;;;;;;;;;;5053247;28;20191;-35
2023/08/19 10:15:25;;;;;;;9.88;5.60;;;;;;;;;;5053220;28;20111;-36
2023/08/19 10:17:52;;;;;;;11.90;6.13;;;;;;;;;;5053878;28;20483;-36
2023/08/19 10:20:20;;;;;;;11.35;5.97;;;;;;;;;;5053279;28;20025;-36
2023/08/19 10:22:47;;;;;;;10.80;5.90;;;;;;;;;;5053488;28;20045;-35
2023/08/19 10:25:14;;;;;;;10.48;6.22;;;;;;;;;;5053316;28;20476;-36
2023/08/19 10:27:41;;;;;;;10.45;5.55;;;;;;;;;;5053569;28;20408;-36
2023/08/19 10:30:25;;;;;;;10.93;5.15;;;;;;;;;;5052747;28;20036;-35
2023/08/19 10:32:50;;;;;;;8.82;4.95;;;;;;;;;;5055174;28;20052;-34
2023/08/19 10:35:16;;;;;;;7.72;4.43;;;;;;;;;;5057276;28;20357;-35
2023/08/19 10:37:42;;;;;;;6.85;3.90;;;;;;;;;;5057221;28;20025;-36
2023/08/19 10:40:08;;;;;;;8.32;4.10;;;;;;;;;;5057101;28;20021;-36
2023/08/19 10:42:34;;;;;;;10.77;4.38;;;;;;;;;;5057384;28;20025;-35
2023/08/19 10:44:59;;;;;;;8.15;3.97;;;;;;;;;;5057628;28;20104;-35
2023/08/19 10:47:24;;;;;;;7.25;4.40;;;;;;;;;;5056991;28;20021;-36
2023/08/19 10:49:49;;;;;;;5.93;3.40;;;;;;;;;;5056970;28;20020;-35
2023/08/19 10:52:21;;;;;;;8.23;3.33;;;;;;;;;;5057042;28;20252;-35
2023/08/19 10:54:46;;;;;;;7.18;3.70;;;;;;;;;;5057455;28;20108;-35
2023/08/19 10:57:15;;;;;;;8.23;3.70;;;;;;;;;;5057238;28;20051;-35
2023/08/19 10:59:41;;;;;;;7.47;3.58;;;;;;;;;;5057099;28;20029;-35
2023/08/19 11:02:07;;;;;;;10.20;3.80;;;;;;;;;;5057433;28;20514;-35
2023/08/19 11:04:32;;;;;;;8.35;3.92;;;;;;;;;;5057014;28;20017;-35
2023/08/19 11:06:58;;;;;;;6.78;4.25;;;;;;;;;;5057294;28;20024;-35
2023/08/19 11:09:24;;;;;;;8.67;4.00;;;;;;;;;;5057314;28;20020;-35
2023/08/19 11:11:50;;;;;;;9.32;5.18;;;;;;;;;;5055723;28;20307;-35
2023/08/19 11:14:18;;;;;;;9.10;4.60;;;;;;;;;;5056618;28;20031;-34
2023/08/19 11:16:50;;;;;;;8.32;4.75;;;;;;;;;;5056575;28;20028;-35
2023/08/19 11:19:16;;;;;;;8.68;4.70;;;;;;;;;;5056650;28;20543;-44
2023/08/19 11:21:42;;;;;;;7.70;4.75;;;;;;;;;;5056389;28;20108;-35
2023/08/19 11:24:08;;;;;;;9.38;4.60;;;;;;;;;;5056689;28;20044;-36
2023/08/19 11:26:34;;;;;;;9.77;4.50;;;;;;;;;;5056389;28;20021;-36
2023/08/19 11:29:02;;;;;;;10.35;5.60;;;;;;;;;;5056369;28;20116;-35
2023/08/19 11:31:27;;;;;;;9.98;4.93;;;;;;;;;;5056546;28;20045;-37
2023/08/19 11:33:53;;;;;;;11.67;5.03;;;;;;;;;;5056284;28;20032;-36
2023/08/19 11:36:23;;;;;;;13.07;5.67;;;;;;;;;;5056270;28;20714;-35
2023/08/19 11:38:48;;;;;;;9.30;5.18;;;;;;;;;;5056654;28;20057;-36
2023/08/19 11:41:13;;;;;;;12.50;6.00;;;;;;;;;;5055999;28;20071;-36
2023/08/19 11:43:43;;;;;;;14.20;6.57;;;;;;;;;;5056011;28;20313;-35
2023/08/19 11:46:08;;;;;;;13.60;6.70;;;;;;;;;;5056265;28;20018;-35
2023/08/19 11:48:33;;;;;;;13.52;6.28;;;;;;;;;;5056495;28;20075;-35
2023/08/19 11:50:58;;;;;;;11.80;6.43;;;;;;;;;;5055979;28;20491;-35
2023/08/19 11:53:28;;;;;;;11.00;6.07;;;;;;;;;;5056113;28;20796;-36
2023/08/19 11:55:57;;;;;;;11.23;6.40;;;;;;;;;;5055870;28;20109;-35
2023/08/19 11:58:23;;;;;;;9.88;6.32;;;;;;;;;;5055692;28;20376;-36
2023/08/19 12:00:49;;;;;;;11.43;6.47;;;;;;;;;;5055751;28;20017;-35
2023/08/19 12:03:15;;;;;;;14.30;6.53;;;;;;;;;;5056037;28;20091;-35
2023/08/19 12:05:42;;;;;;;14.73;6.95;;;;;;;;;;5055973;28;20060;-35
2023/08/19 12:08:07;;;;;;;11.90;6.75;;;;;;;;;;5055844;28;20021;-35
2023/08/19 12:10:40;;;;;;;13.17;6.27;;;;;;;;;;5056652;28;20100;-36
2023/08/19 12:13:05;;;;;;;10.52;6.30;;;;;;;;;;5055329;28;20294;-35
2023/08/19 12:15:30;;;;;;;12.07;6.93;;;;;;;;;;5056105;28;20032;-35
2023/08/19 12:17:56;;;;;;;10.87;6.30;;;;;;;;;;5054275;28;20021;-35
2023/08/19 12:20:21;;;;;;;13.82;6.40;;;;;;;;;;5055381;28;20108;-35
2023/08/19 12:22:47;;;;;;;12.65;6.97;;;;;;;;;;5055423;28;20476;-35
2023/08/19 12:25:13;;;;;;;9.77;6.07;;;;;;;;;;5055607;28;20040;-35
2023/08/19 12:27:39;;;;;;;11.15;6.05;;;;;;;;;;5055816;28;20019;-35
2023/08/19 12:30:05;;;;;;;8.93;5.40;;;;;;;;;;5055665;28;20538;-35
2023/08/19 12:32:30;;;;;;;8.40;4.82;;;;;;;;;;5055466;28;20278;-35
2023/08/19 12:34:56;;;;;;;10.17;4.13;;;;;;;;;;5055118;28;20017;-36
2023/08/19 12:37:21;;;;;;;7.80;3.80;;;;;;;;;;5055393;28;20048;-35
2023/08/19 12:39:46;;;;;;;6.17;3.30;;;;;;;;;;5055271;28;20078;-35
2023/08/19 12:42:11;;;;;;;10.80;3.03;;;;;;;;;;5055591;28;20063;-36
2023/08/19 12:44:36;;;;;;;7.70;3.07;;;;;;;;;;5054924;28;20371;-36
2023/08/19 12:47:02;;;;;;;6.80;2.97;;;;;;;;;;5054972;28;20021;-36
2023/08/19 12:49:27;;;;;;;5.50;2.50;;;;;;;;;;5055151;28;20279;-35
2023/08/19 12:51:52;;;;;;;8.85;2.53;;;;;;;;;;5055512;28;20275;-36
2023/08/19 12:54:17;;;;;;;6.43;2.17;;;;;;;;;;5055029;28;20020;-36
2023/08/19 12:56:43;;;;;;;5.63;2.00;;;;;;;;;;5054349;28;20021;-36
2023/08/19 12:59:08;;;;;;;8.30;2.03;;;;;;;;;;5055206;28;20267;-36
2023/08/19 13:01:33;;;;;;;4.80;1.97;;;;;;;;;;5054545;28;20025;-36
2023/08/19 13:03:59;;;;;;;5.67;2.00;;;;;;;;;;5054887;28;20109;-36
2023/08/19 13:06:24;;;;;;;5.65;2.20;;;;;;;;;;5055022;28;20070;-36
2023/08/19 13:08:49;;;;;;;6.07;2.20;;;;;;;;;;5055053;28;20005;-35
2023/08/19 13:11:15;;;;;;;6.07;2.13;;;;;;;;;;5054563;28;20407;-35
2023/08/19 13:13:40;;;;;;;6.70;1.90;;;;;;;;;;5054281;28;20264;-35
2023/08/19 13:16:05;;;;;;;8.35;2.35;;;;;;;;;;5054573;28;20289;-36
2023/08/19 13:18:30;;;;;;;10.50;2.23;;;;;;;;;;5054794;28;20017;-35
2023/08/19 13:20:55;;;;;;;10.07;2.40;;;;;;;;;;5054189;28;20056;-35
2023/08/19 13:23:21;;;;;;;13.23;2.67;;;;;;;;;;5054467;28;20046;-36
2023/08/19 13:25:46;;;;;;;9.50;2.83;;;;;;;;;;5054672;28;20009;-35
2023/08/19 13:28:11;;;;;;;11.47;2.40;;;;;;;;;;5054040;28;20028;-35
2023/08/19 13:30:37;;;;;;;11.35;2.50;;;;;;;;;;5053938;28;20020;-36
2023/08/19 13:33:03;;;;;;;7.43;2.40;;;;;;;;;;5054591;28;20024;-35
2023/08/19 13:35:29;;;;;;;7.90;2.40;;;;;;;;;;5055077;28;20506;-36
2023/08/19 13:37:55;;;;;;;8.07;2.40;;;;;;;;;;5053928;28;20017;-35
2023/08/19 13:40:20;;;;;;;9.15;2.50;;;;;;;;;;5054041;28;20075;-35
2023/08/19 13:42:45;;;;;;;9.03;2.30;;;;;;;;;;5054579;28;20103;-35
2023/08/19 13:45:10;;;;;;;13.40;2.90;;;;;;;;;;5054382;28;20024;-35
2023/08/19 13:47:35;;;;;;;12.33;2.60;;;;;;;;;;5054379;28;20252;-35
2023/08/19 13:50:01;;;;;;;7.17;2.63;;;;;;;;;;5053751;28;20456;-35
2023/08/19 13:52:38;;;;;;;13.67;3.03;;;;;;;;;;5054366;28;20115;-35
2023/08/19 13:55:04;;;;;;;10.25;2.50;;;;;;;;;;5053949;28;20346;-35
2023/08/19 13:57:29;;;;;;;14.48;2.75;;;;;;;;;;5053620;28;20056;-35
2023/08/19 13:59:54;;;;;;;13.13;2.72;;;;;;;;;;5053556;28;20075;-35
2023/08/19 14:02:19;;;;;;;10.77;2.30;;;;;;;;;;5053520;28;20021;-35
2023/08/19 14:04:45;;;;;;;12.70;2.50;;;;;;;;;;5053513;28;20052;-35
2023/08/19 14:07:10;;;;;;;10.10;2.40;;;;;;;;;;5052586;28;20353;-35
2023/08/19 14:09:35;;;;;;;10.90;2.37;;;;;;;;;;5053503;28;20497;-35
2023/08/19 14:12:00;;;;;;;11.73;2.70;;;;;;;;;;5053280;28;20047;-36
2023/08/19 14:14:25;;;;;;;13.07;3.17;;;;;;;;;;5053455;28;20021;-36
2023/08/19 14:16:53;;;;;;;12.30;2.70;;;;;;;;;;5053377;28;20021;-36
2023/08/19 14:19:18;;;;;;;11.40;2.63;;;;;;;;;;5053328;28;20021;-36